This is the latest recevied weather packets stored in our database for station/object F4GQK-13. If no packets are shown the sender has not sent any weather packets the latest 10 day(s).
| Time | Temp. | Humidity | Pressure | Rain* | Wind** | Luminosity | Snow |
|---|---|---|---|---|---|---|---|
| 1777713904 | 22.22° C | 71% | 1019.3 hPa | 0 mm | - | 485 W/m² | - |
| 1777713604 | 21.67° C | 75% | 1019.5 hPa | 0 mm | - | 584 W/m² | - |
| 1777713305 | 21.67° C | 76% | 1019.5 hPa | 0 mm | - | 574 W/m² | - |
| 1777713005 | 21.11° C | 77% | 1019.6 hPa | 0 mm | - | 575 W/m² | - |
| 1777712705 | 21.11° C | 76% | 1019.7 hPa | 0 mm | - | 510 W/m² | - |
| 1777712406 | 21.11° C | 76% | 1019.7 hPa | 0 mm | - | 587 W/m² | - |
| 1777712103 | 20.56° C | 79% | 1019.9 hPa | 0 mm | - | 559 W/m² | - |
| 1777711806 | 20.56° C | 80% | 1019.8 hPa | 0 mm | - | 530 W/m² | - |
| 1777711505 | 20.56° C | 81% | 1019.7 hPa | 0 mm | - | 500 W/m² | - |
| 1777711202 | 20.56° C | 79% | 1019.9 hPa | 0 mm | - | 498 W/m² | - |
| 1777710903 | 19.44° C | 83% | 1019.9 hPa | 0 mm | - | 561 W/m² | - |
| 1777710605 | 18.89° C | 85% | 1019.9 hPa | 0 mm | - | 511 W/m² | - |
| 1777710305 | 17.78° C | 88% | 1020.1 hPa | 0 mm | - | 374 W/m² | - |
| 1777710005 | 17.78° C | 89% | 1020.1 hPa | 0 mm | - | 272 W/m² | - |
| 1777709705 | 17.22° C | 90% | 1020.1 hPa | 0 mm | - | 215 W/m² | - |
| 1777709405 | 17.22° C | 90% | 1020 hPa | 0 mm | - | 174 W/m² | - |
| 1777709105 | 17.22° C | 90% | 1020.2 hPa | 0 mm | - | 189 W/m² | - |
| 1777708805 | 16.67° C | 90% | 1020.2 hPa | 0 mm | - | 157 W/m² | - |
| 1777708505 | 16.67° C | 90% | 1020.2 hPa | 0 mm | - | 149 W/m² | - |
| 1777708203 | 16.67° C | 90% | 1020.1 hPa | 0 mm | - | 126 W/m² | - |
| 1777707905 | 16.67° C | 90% | 1020 hPa | 0 mm | - | 128 W/m² | - |
| 1777707605 | 16.67° C | 91% | 1020 hPa | 0 mm | - | 154 W/m² | - |
| 1777707305 | 16.67° C | 91% | 1020.2 hPa | 0 mm | - | 170 W/m² | - |
| 1777707005 | 16.67° C | 92% | 1020.1 hPa | 0 mm | - | 203 W/m² | - |
| 1777706705 | 16.11° C | 93% | 1020.3 hPa | 0 mm | - | 181 W/m² | - |
* Rain latest hour (hover to see other rain measurements)
** Current wind speed in m/s (hover to see current wind gust speed)